Tony Lippman — WDC2428 — position and weather

sailwx.info

Track history (hours):
 
Tides and Currents Weather Stations Pressure Air Temp Water Temp Dewpoint Dewpoint Depression Visibility Wind Speed Wind Dir Waves Ship Positions

Tony Lippman

Owner: Florida Marine, LLC, Mandeville, LA. More information available from US FCC via Universal Licensing System and Coast Guard Vessel Documentation Center.

Last reported at 2018-Jun-20 17:23 UTC. Time now 2018-Jun-21 10:11 UTC.
Position N 32°40' W 091°08'.

Length 44 m; draft 2.6 m.

Type: Towing. MMSI: 366993020.

Date/timePositionNaut miles runAvg speedWind from/ knotsBaromVisibWave heightAir tempDewpointWater temp
2018-Jun-20 17:23N 32°40' W 091°08'2 6.0
2018-Jun-20 17:00N 32°38' W 091°09'3 6.4
2018-Jun-20 16:30N 32°35' W 091°08'3 5.8
2018-Jun-20 16:00N 32°33' W 091°06'3 7.0
2018-Jun-20 15:30N 32°29' W 091°07'3 6.4
2018-Jun-20 15:00N 32°27' W 091°05'3 6.5
2018-Jun-20 14:30N 32°26' W 091°01'3 5.6
2018-Jun-20 14:00N 32°23' W 090°60'2 4.6
2018-Jun-20 13:30N 32°21' W 090°58'2 4.3
2018-Jun-20 13:00N 32°21' W 090°56'2 4.6
2018-Jun-20 12:30N 32°19' W 090°54'1 2.7
2018-Jun-20 12:00N 32°18' W 090°55'0 0.0
2018-Jun-20 11:30N 32°18' W 090°55'0 0.0
2018-Jun-20 11:00N 32°18' W 090°55'0 0.0
2018-Jun-20 10:30N 32°18' W 090°55'2 4.0
2018-Jun-20 10:00N 32°17' W 090°57'3 5.7
2018-Jun-20 09:30N 32°14' W 090°59'3 6.0
2018-Jun-20 09:00N 32°11' W 090°60'3 5.6
2018-Jun-20 08:30N 32°09' W 091°00'2 4.9
2018-Jun-20 08:00N 32°07' W 091°03'3 5.9
2018-Jun-20 07:30N 32°08' W 091°06'2 3.0
2018-Jun-20 06:45N 32°06' W 091°05'0 0.7
2018-Jun-20 06:19N 32°05' W 091°05'2 5.5
2018-Jun-20 06:00N 32°04' W 091°04'3 6.4
2018-Jun-20 05:30N 32°01' W 091°05'3 5.8
2018-Jun-20 04:58N 31°59' W 091°08'3 5.9
2018-Jun-20 04:29N 31°58' W 091°11'4 3.9
2018-Jun-20 03:26N 31°54' W 091°12'3 5.9
2018-Jun-20 02:53N 31°52' W 091°15'2 5.2
2018-Jun-20 02:30N 31°51' W 091°17'3 5.3
2018-Jun-20 01:55N 31°51' W 091°21'  
2018-Jun-16 08:39N 31°43' W 091°23'210.3
2018-Jun-16 08:29N 31°44' W 091°22'610.5
2018-Jun-16 07:53N 31°51' W 091°21'5 9.4
2018-Jun-16 07:23N 31°52' W 091°15'410.1
2018-Jun-16 06:58N 31°55' W 091°12'6 8.4
2018-Jun-16 06:15N 31°59' W 091°07'4 9.9
2018-Jun-16 05:53N 32°02' W 091°04'4 9.1
2018-Jun-16 05:25N 32°06' W 091°06'2 5.5
2018-Jun-16 04:59N 32°08' W 091°04'4 7.9
2018-Jun-16 04:30N 32°10' W 091°00'510.4
2018-Jun-16 04:00N 32°15' W 090°59'510.4
2018-Jun-16 03:30N 32°18' W 090°55'3 6.8
2018-Jun-16 03:00N 32°21' W 090°57'4 7.2
2018-Jun-16 02:30N 32°24' W 090°59'5 9.9
2018-Jun-16 02:00N 32°27' W 091°04'5 9.2
2018-Jun-16 01:30N 32°31' W 091°06'5 9.3
2018-Jun-16 01:00N 32°35' W 091°08'4 0.2
2018-Jun-14 20:20N 32°40' W 091°08'2 6.3
2018-Jun-14 20:00N 32°38' W 091°09'3 6.4
2018-Jun-14 19:30N 32°35' W 091°08'3 6.1
2018-Jun-14 19:00N 32°33' W 091°06'3 6.7
2018-Jun-14 18:30N 32°29' W 091°07'3 6.3
2018-Jun-14 18:00N 32°27' W 091°05'3 6.7
2018-Jun-14 17:30N 32°26' W 091°01'3 5.4
2018-Jun-14 17:00N 32°23' W 090°60'3 5.4
2018-Jun-14 16:30N 32°21' W 090°58'3 6.5
2018-Jun-14 16:00N 32°20' W 090°54'3 6.1
2018-Jun-14 15:30N 32°18' W 090°56'3 5.8
2018-Jun-14 15:00N 32°15' W 090°58'3 6.5
2018-Jun-14 14:30N 32°12' W 090°59'3 6.4
2018-Jun-14 14:00N 32°09' W 091°00'3 5.9
2018-Jun-14 13:30N 32°07' W 091°02'3 6.4
2018-Jun-14 13:00N 32°08' W 091°06'4 6.0
2018-Jun-14 12:17N 32°04' W 091°04'6 6.0
2018-Jun-14 11:13N 31°59' W 091°08'2 6.5
2018-Jun-14 10:56N 31°58' W 091°11'  
Track history (hours):
 
Tides and Currents Weather Stations Pressure Air Temp Water Temp Dewpoint Dewpoint Depression Visibility Wind Speed Wind Dir Waves Ship Positions

Tony Lippman

Owner: Florida Marine, LLC, Mandeville, LA. More information available from US FCC via Universal Licensing System and Coast Guard Vessel Documentation Center.

Last reported at 2018-Jun-20 17:23 UTC. Time now 2018-Jun-21 10:11 UTC.
Position N 32°40' W 091°08'.

Length 44 m; draft 2.6 m.

Type: Towing. MMSI: 366993020.

Date/timePositionNaut miles runAvg speedWind from/ knotsBaromVisibWave heightAir tempDewpointWater temp
2018-Jun-20 17:23N 32°40' W 091°08'2 6.0
2018-Jun-20 17:00N 32°38' W 091°09'3 6.4
2018-Jun-20 16:30N 32°35' W 091°08'3 5.8
2018-Jun-20 16:00N 32°33' W 091°06'3 7.0
2018-Jun-20 15:30N 32°29' W 091°07'3 6.4
2018-Jun-20 15:00N 32°27' W 091°05'3 6.5
2018-Jun-20 14:30N 32°26' W 091°01'3 5.6
2018-Jun-20 14:00N 32°23' W 090°60'2 4.6
2018-Jun-20 13:30N 32°21' W 090°58'2 4.3
2018-Jun-20 13:00N 32°21' W 090°56'2 4.6
2018-Jun-20 12:30N 32°19' W 090°54'1 2.7
2018-Jun-20 12:00N 32°18' W 090°55'0 0.0
2018-Jun-20 11:30N 32°18' W 090°55'0 0.0
2018-Jun-20 11:00N 32°18' W 090°55'0 0.0
2018-Jun-20 10:30N 32°18' W 090°55'2 4.0
2018-Jun-20 10:00N 32°17' W 090°57'3 5.7
2018-Jun-20 09:30N 32°14' W 090°59'3 6.0
2018-Jun-20 09:00N 32°11' W 090°60'3 5.6
2018-Jun-20 08:30N 32°09' W 091°00'2 4.9
2018-Jun-20 08:00N 32°07' W 091°03'3 5.9
2018-Jun-20 07:30N 32°08' W 091°06'2 3.0
2018-Jun-20 06:45N 32°06' W 091°05'0 0.7
2018-Jun-20 06:19N 32°05' W 091°05'2 5.5
2018-Jun-20 06:00N 32°04' W 091°04'3 6.4
2018-Jun-20 05:30N 32°01' W 091°05'3 5.8
2018-Jun-20 04:58N 31°59' W 091°08'3 5.9
2018-Jun-20 04:29N 31°58' W 091°11'4 3.9
2018-Jun-20 03:26N 31°54' W 091°12'3 5.9
2018-Jun-20 02:53N 31°52' W 091°15'2 5.2
2018-Jun-20 02:30N 31°51' W 091°17'3 5.3
2018-Jun-20 01:55N 31°51' W 091°21'  
2018-Jun-16 08:39N 31°43' W 091°23'210.3
2018-Jun-16 08:29N 31°44' W 091°22'610.5
2018-Jun-16 07:53N 31°51' W 091°21'5 9.4
2018-Jun-16 07:23N 31°52' W 091°15'410.1
2018-Jun-16 06:58N 31°55' W 091°12'6 8.4
2018-Jun-16 06:15N 31°59' W 091°07'4 9.9
2018-Jun-16 05:53N 32°02' W 091°04'4 9.1
2018-Jun-16 05:25N 32°06' W 091°06'2 5.5
2018-Jun-16 04:59N 32°08' W 091°04'4 7.9
2018-Jun-16 04:30N 32°10' W 091°00'510.4
2018-Jun-16 04:00N 32°15' W 090°59'510.4
2018-Jun-16 03:30N 32°18' W 090°55'3 6.8
2018-Jun-16 03:00N 32°21' W 090°57'4 7.2
2018-Jun-16 02:30N 32°24' W 090°59'5 9.9
2018-Jun-16 02:00N 32°27' W 091°04'5 9.2
2018-Jun-16 01:30N 32°31' W 091°06'5 9.3
2018-Jun-16 01:00N 32°35' W 091°08'4 0.2
2018-Jun-14 20:20N 32°40' W 091°08'2 6.3
2018-Jun-14 20:00N 32°38' W 091°09'3 6.4
2018-Jun-14 19:30N 32°35' W 091°08'3 6.1
2018-Jun-14 19:00N 32°33' W 091°06'3 6.7
2018-Jun-14 18:30N 32°29' W 091°07'3 6.3
2018-Jun-14 18:00N 32°27' W 091°05'3 6.7
2018-Jun-14 17:30N 32°26' W 091°01'3 5.4
2018-Jun-14 17:00N 32°23' W 090°60'3 5.4
2018-Jun-14 16:30N 32°21' W 090°58'3 6.5
2018-Jun-14 16:00N 32°20' W 090°54'3 6.1
2018-Jun-14 15:30N 32°18' W 090°56'3 5.8
2018-Jun-14 15:00N 32°15' W 090°58'3 6.5
2018-Jun-14 14:30N 32°12' W 090°59'3 6.4
2018-Jun-14 14:00N 32°09' W 091°00'3 5.9
2018-Jun-14 13:30N 32°07' W 091°02'3 6.4
2018-Jun-14 13:00N 32°08' W 091°06'4 6.0
2018-Jun-14 12:17N 32°04' W 091°04'6 6.0
2018-Jun-14 11:13N 31°59' W 091°08'2 6.5
2018-Jun-14 10:56N 31°58' W 091°11'  

Dump ship's entire track history